sensor_id;sensor_type;location;lat;lon;timestamp;P1;durP1;ratioP1;P2;durP2;ratioP2
52106;SDS011;38105;52.968;5.974;2022-12-24T00:01:17;34.05;;;21.27;;
52106;SDS011;38105;52.968;5.974;2022-12-24T00:03:46;33.55;;;20.80;;
52106;SDS011;38105;52.968;5.974;2022-12-24T00:06:16;35.67;;;21.85;;
52106;SDS011;38105;52.968;5.974;2022-12-24T00:08:44;38.78;;;23.63;;
52106;SDS011;38105;52.968;5.974;2022-12-24T00:11:09;38.38;;;23.00;;
52106;SDS011;38105;52.968;5.974;2022-12-24T00:13:35;37.13;;;22.02;;
52106;SDS011;38105;52.968;5.974;2022-12-24T00:16:01;33.80;;;22.27;;
52106;SDS011;38105;52.968;5.974;2022-12-24T00:18:26;37.42;;;22.42;;
52106;SDS011;38105;52.968;5.974;2022-12-24T00:20:52;39.55;;;23.55;;
52106;SDS011;38105;52.968;5.974;2022-12-24T00:23:18;41.55;;;24.40;;
52106;SDS011;38105;52.968;5.974;2022-12-24T00:25:44;36.53;;;22.60;;
52106;SDS011;38105;52.968;5.974;2022-12-24T00:28:11;37.25;;;23.45;;
52106;SDS011;38105;52.968;5.974;2022-12-24T00:30:38;39.45;;;23.95;;
52106;SDS011;38105;52.968;5.974;2022-12-24T00:33:05;47.80;;;24.77;;
52106;SDS011;38105;52.968;5.974;2022-12-24T00:35:34;43.75;;;23.75;;
52106;SDS011;38105;52.968;5.974;2022-12-24T00:38:01;39.90;;;22.63;;
52106;SDS011;38105;52.968;5.974;2022-12-24T00:40:28;34.50;;;22.55;;
52106;SDS011;38105;52.968;5.974;2022-12-24T00:42:55;40.78;;;23.10;;
52106;SDS011;38105;52.968;5.974;2022-12-24T00:45:21;57.25;;;26.05;;
52106;SDS011;38105;52.968;5.974;2022-12-24T00:47:47;51.60;;;24.65;;
52106;SDS011;38105;52.968;5.974;2022-12-24T00:50:12;39.88;;;23.25;;
52106;SDS011;38105;52.968;5.974;2022-12-24T00:52:38;40.25;;;23.95;;
52106;SDS011;38105;52.968;5.974;2022-12-24T00:55:04;38.42;;;23.13;;
52106;SDS011;38105;52.968;5.974;2022-12-24T00:57:30;34.22;;;23.38;;
52106;SDS011;38105;52.968;5.974;2022-12-24T00:59:56;32.13;;;22.13;;
52106;SDS011;38105;52.968;5.974;2022-12-24T01:02:21;43.30;;;23.77;;
52106;SDS011;38105;52.968;5.974;2022-12-24T01:04:50;33.20;;;21.35;;
52106;SDS011;38105;52.968;5.974;2022-12-24T01:07:34;42.50;;;23.33;;
52106;SDS011;38105;52.968;5.974;2022-12-24T01:10:01;36.30;;;22.38;;
52106;SDS011;38105;52.968;5.974;2022-12-24T01:12:27;36.08;;;22.77;;
52106;SDS011;38105;52.968;5.974;2022-12-24T01:14:53;50.25;;;25.15;;
52106;SDS011;38105;52.968;5.974;2022-12-24T01:17:19;43.92;;;26.55;;
52106;SDS011;38105;52.968;5.974;2022-12-24T01:19:45;53.85;;;27.42;;
52106;SDS011;38105;52.968;5.974;2022-12-24T01:22:11;45.22;;;27.25;;
52106;SDS011;38105;52.968;5.974;2022-12-24T01:24:37;48.53;;;27.38;;
52106;SDS011;38105;52.968;5.974;2022-12-24T01:27:05;55.10;;;28.48;;
52106;SDS011;38105;52.968;5.974;2022-12-24T01:29:31;53.83;;;28.17;;
52106;SDS011;38105;52.968;5.974;2022-12-24T01:31:56;46.95;;;28.33;;
52106;SDS011;38105;52.968;5.974;2022-12-24T01:34:22;62.63;;;30.90;;
52106;SDS011;38105;52.968;5.974;2022-12-24T01:36:48;57.17;;;29.08;;
52106;SDS011;38105;52.968;5.974;2022-12-24T01:39:13;55.92;;;28.52;;
52106;SDS011;38105;52.968;5.974;2022-12-24T01:41:39;52.17;;;28.38;;
52106;SDS011;38105;52.968;5.974;2022-12-24T01:44:27;56.13;;;29.15;;
52106;SDS011;38105;52.968;5.974;2022-12-24T01:47:03;49.13;;;26.33;;
52106;SDS011;38105;52.968;5.974;2022-12-24T01:49:38;49.53;;;26.77;;
52106;SDS011;38105;52.968;5.974;2022-12-24T01:52:29;50.35;;;26.45;;
52106;SDS011;38105;52.968;5.974;2022-12-24T01:55:19;48.17;;;25.77;;
52106;SDS011;38105;52.968;5.974;2022-12-24T01:58:02;43.45;;;23.80;;
52106;SDS011;38105;52.968;5.974;2022-12-24T02:00:30;46.50;;;23.65;;
52106;SDS011;38105;52.968;5.974;2022-12-24T02:02:59;44.00;;;22.73;;
52106;SDS011;38105;52.968;5.974;2022-12-24T02:05:30;40.70;;;21.20;;
52106;SDS011;38105;52.968;5.974;2022-12-24T02:08:00;41.13;;;21.92;;
52106;SDS011;38105;52.968;5.974;2022-12-24T02:10:28;41.42;;;21.02;;
52106;SDS011;38105;52.968;5.974;2022-12-24T02:12:54;35.65;;;19.58;;
52106;SDS011;38105;52.968;5.974;2022-12-24T02:15:21;38.58;;;21.52;;
52106;SDS011;38105;52.968;5.974;2022-12-24T02:23:19;41.33;;;20.40;;
52106;SDS011;38105;52.968;5.974;2022-12-24T02:32:01;38.35;;;16.55;;
52106;SDS011;38105;52.968;5.974;2022-12-24T02:34:32;33.00;;;17.20;;
52106;SDS011;38105;52.968;5.974;2022-12-24T02:42:09;44.70;;;18.88;;
52106;SDS011;38105;52.968;5.974;2022-12-24T02:44:51;37.63;;;17.00;;
52106;SDS011;38105;52.968;5.974;2022-12-24T02:47:22;41.58;;;13.90;;
52106;SDS011;38105;52.968;5.974;2022-12-24T02:49:50;44.63;;;15.57;;
52106;SDS011;38105;52.968;5.974;2022-12-24T02:54:57;46.00;;;8.98;;
52106;SDS011;38105;52.968;5.974;2022-12-24T03:03:10;46.92;;;7.47;;
52106;SDS011;38105;52.968;5.974;2022-12-24T03:06:07;35.20;;;5.95;;
52106;SDS011;38105;52.968;5.974;2022-12-24T03:08:59;45.25;;;6.47;;
52106;SDS011;38105;52.968;5.974;2022-12-24T03:11:32;46.72;;;6.47;;
52106;SDS011;38105;52.968;5.974;2022-12-24T03:14:02;50.38;;;7.15;;
52106;SDS011;38105;52.968;5.974;2022-12-24T03:16:28;47.88;;;6.82;;
52106;SDS011;38105;52.968;5.974;2022-12-24T03:18:54;43.20;;;6.38;;
52106;SDS011;38105;52.968;5.974;2022-12-24T03:21:25;48.00;;;6.28;;
52106;SDS011;38105;52.968;5.974;2022-12-24T03:23:54;40.30;;;6.60;;
52106;SDS011;38105;52.968;5.974;2022-12-24T03:26:21;41.67;;;5.47;;
52106;SDS011;38105;52.968;5.974;2022-12-24T03:28:49;40.35;;;5.68;;
52106;SDS011;38105;52.968;5.974;2022-12-24T03:31:15;40.65;;;5.93;;
52106;SDS011;38105;52.968;5.974;2022-12-24T03:33:42;43.63;;;7.00;;
52106;SDS011;38105;52.968;5.974;2022-12-24T03:36:08;44.28;;;6.38;;
52106;SDS011;38105;52.968;5.974;2022-12-24T03:38:34;43.72;;;5.80;;
52106;SDS011;38105;52.968;5.974;2022-12-24T03:41:00;41.58;;;5.20;;
52106;SDS011;38105;52.968;5.974;2022-12-24T03:43:26;38.58;;;6.18;;
52106;SDS011;38105;52.968;5.974;2022-12-24T03:45:51;49.60;;;6.57;;
52106;SDS011;38105;52.968;5.974;2022-12-24T03:48:17;38.50;;;6.38;;
52106;SDS011;38105;52.968;5.974;2022-12-24T03:50:43;47.58;;;5.70;;
52106;SDS011;38105;52.968;5.974;2022-12-24T03:53:08;53.40;;;6.85;;
52106;SDS011;38105;52.968;5.974;2022-12-24T03:55:34;40.22;;;6.47;;
52106;SDS011;38105;52.968;5.974;2022-12-24T03:58:00;48.90;;;6.03;;
52106;SDS011;38105;52.968;5.974;2022-12-24T04:00:25;51.00;;;6.65;;
52106;SDS011;38105;52.968;5.974;2022-12-24T04:02:52;55.20;;;7.45;;
52106;SDS011;38105;52.968;5.974;2022-12-24T04:05:18;46.40;;;5.75;;
52106;SDS011;38105;52.968;5.974;2022-12-24T04:07:44;54.25;;;6.63;;
52106;SDS011;38105;52.968;5.974;2022-12-24T04:10:10;55.78;;;8.85;;
52106;SDS011;38105;52.968;5.974;2022-12-24T04:12:37;49.17;;;6.35;;
52106;SDS011;38105;52.968;5.974;2022-12-24T04:15:03;46.05;;;6.47;;
52106;SDS011;38105;52.968;5.974;2022-12-24T04:17:29;56.83;;;7.10;;
52106;SDS011;38105;52.968;5.974;2022-12-24T04:19:55;58.92;;;6.68;;
52106;SDS011;38105;52.968;5.974;2022-12-24T04:22:21;55.50;;;8.10;;
52106;SDS011;38105;52.968;5.974;2022-12-24T04:24:47;67.18;;;7.75;;
52106;SDS011;38105;52.968;5.974;2022-12-24T04:27:13;65.25;;;8.15;;
52106;SDS011;38105;52.968;5.974;2022-12-24T04:29:39;53.67;;;7.72;;
52106;SDS011;38105;52.968;5.974;2022-12-24T04:32:05;63.80;;;7.45;;
52106;SDS011;38105;52.968;5.974;2022-12-24T04:34:30;59.60;;;7.35;;
52106;SDS011;38105;52.968;5.974;2022-12-24T04:36:56;62.58;;;9.10;;
52106;SDS011;38105;52.968;5.974;2022-12-24T04:39:22;54.55;;;7.22;;
52106;SDS011;38105;52.968;5.974;2022-12-24T04:41:47;70.45;;;9.35;;
52106;SDS011;38105;52.968;5.974;2022-12-24T04:44:13;67.30;;;7.72;;
52106;SDS011;38105;52.968;5.974;2022-12-24T04:46:38;54.58;;;7.45;;
52106;SDS011;38105;52.968;5.974;2022-12-24T04:49:06;70.05;;;8.05;;
52106;SDS011;38105;52.968;5.974;2022-12-24T04:51:32;64.30;;;8.95;;
52106;SDS011;38105;52.968;5.974;2022-12-24T04:53:57;60.85;;;7.90;;
52106;SDS011;38105;52.968;5.974;2022-12-24T04:56:24;61.70;;;8.50;;
52106;SDS011;38105;52.968;5.974;2022-12-24T04:58:51;69.93;;;7.35;;
52106;SDS011;38105;52.968;5.974;2022-12-24T05:01:18;64.50;;;8.05;;
52106;SDS011;38105;52.968;5.974;2022-12-24T05:03:46;68.60;;;8.75;;
52106;SDS011;38105;52.968;5.974;2022-12-24T05:06:13;66.05;;;8.20;;
52106;SDS011;38105;52.968;5.974;2022-12-24T05:08:43;64.70;;;7.88;;
52106;SDS011;38105;52.968;5.974;2022-12-24T05:11:09;74.85;;;8.15;;
52106;SDS011;38105;52.968;5.974;2022-12-24T05:13:38;60.22;;;8.15;;
52106;SDS011;38105;52.968;5.974;2022-12-24T05:16:07;64.90;;;8.57;;
52106;SDS011;38105;52.968;5.974;2022-12-24T05:18:34;66.18;;;7.82;;
52106;SDS011;38105;52.968;5.974;2022-12-24T05:21:00;77.43;;;8.57;;
52106;SDS011;38105;52.968;5.974;2022-12-24T05:23:26;60.05;;;7.85;;
52106;SDS011;38105;52.968;5.974;2022-12-24T05:26:14;69.05;;;9.07;;
52106;SDS011;38105;52.968;5.974;2022-12-24T05:28:54;55.95;;;7.88;;
52106;SDS011;38105;52.968;5.974;2022-12-24T05:31:22;55.80;;;7.57;;
52106;SDS011;38105;52.968;5.974;2022-12-24T05:33:48;55.88;;;7.25;;
52106;SDS011;38105;52.968;5.974;2022-12-24T05:36:14;58.75;;;8.00;;
52106;SDS011;38105;52.968;5.974;2022-12-24T05:38:40;72.60;;;8.25;;
52106;SDS011;38105;52.968;5.974;2022-12-24T05:41:06;63.90;;;7.45;;
52106;SDS011;38105;52.968;5.974;2022-12-24T05:43:34;69.00;;;8.70;;
52106;SDS011;38105;52.968;5.974;2022-12-24T05:46:05;65.53;;;8.35;;
52106;SDS011;38105;52.968;5.974;2022-12-24T05:48:32;61.97;;;6.97;;
52106;SDS011;38105;52.968;5.974;2022-12-24T05:50:58;74.97;;;8.25;;
52106;SDS011;38105;52.968;5.974;2022-12-24T05:53:27;61.80;;;8.55;;
52106;SDS011;38105;52.968;5.974;2022-12-24T05:55:53;73.85;;;7.85;;
52106;SDS011;38105;52.968;5.974;2022-12-24T05:58:18;67.32;;;8.00;;
52106;SDS011;38105;52.968;5.974;2022-12-24T06:00:44;58.58;;;7.80;;
52106;SDS011;38105;52.968;5.974;2022-12-24T06:03:09;77.78;;;8.60;;
52106;SDS011;38105;52.968;5.974;2022-12-24T06:05:35;62.38;;;9.20;;
52106;SDS011;38105;52.968;5.974;2022-12-24T06:08:01;50.42;;;7.38;;
52106;SDS011;38105;52.968;5.974;2022-12-24T06:10:26;65.07;;;7.43;;
52106;SDS011;38105;52.968;5.974;2022-12-24T06:12:52;58.08;;;7.10;;
52106;SDS011;38105;52.968;5.974;2022-12-24T06:15:19;61.22;;;8.25;;
52106;SDS011;38105;52.968;5.974;2022-12-24T06:17:44;78.07;;;8.90;;
52106;SDS011;38105;52.968;5.974;2022-12-24T06:20:10;62.35;;;7.57;;
52106;SDS011;38105;52.968;5.974;2022-12-24T06:22:36;64.97;;;8.75;;
52106;SDS011;38105;52.968;5.974;2022-12-24T06:25:01;69.70;;;9.52;;
52106;SDS011;38105;52.968;5.974;2022-12-24T06:27:27;77.68;;;8.65;;
52106;SDS011;38105;52.968;5.974;2022-12-24T06:29:53;73.40;;;8.88;;
52106;SDS011;38105;52.968;5.974;2022-12-24T06:32:19;60.17;;;7.82;;
52106;SDS011;38105;52.968;5.974;2022-12-24T06:34:44;67.68;;;8.23;;
52106;SDS011;38105;52.968;5.974;2022-12-24T06:37:10;68.57;;;7.78;;
52106;SDS011;38105;52.968;5.974;2022-12-24T06:39:42;75.15;;;8.07;;
52106;SDS011;38105;52.968;5.974;2022-12-24T06:42:13;63.53;;;8.80;;
52106;SDS011;38105;52.968;5.974;2022-12-24T06:44:39;64.70;;;8.13;;
52106;SDS011;38105;52.968;5.974;2022-12-24T06:47:07;62.85;;;8.25;;
52106;SDS011;38105;52.968;5.974;2022-12-24T06:49:32;61.75;;;7.30;;
52106;SDS011;38105;52.968;5.974;2022-12-24T06:51:58;55.53;;;7.25;;
52106;SDS011;38105;52.968;5.974;2022-12-24T06:54:27;73.28;;;7.95;;
52106;SDS011;38105;52.968;5.974;2022-12-24T06:56:52;79.10;;;8.70;;
52106;SDS011;38105;52.968;5.974;2022-12-24T06:59:18;73.65;;;9.10;;
52106;SDS011;38105;52.968;5.974;2022-12-24T07:01:44;68.63;;;8.73;;
52106;SDS011;38105;52.968;5.974;2022-12-24T07:04:09;55.47;;;6.90;;
52106;SDS011;38105;52.968;5.974;2022-12-24T07:06:35;71.60;;;8.68;;
52106;SDS011;38105;52.968;5.974;2022-12-24T07:09:00;68.38;;;8.60;;
52106;SDS011;38105;52.968;5.974;2022-12-24T07:11:26;73.60;;;8.55;;
52106;SDS011;38105;52.968;5.974;2022-12-24T07:13:52;63.92;;;8.00;;
52106;SDS011;38105;52.968;5.974;2022-12-24T07:16:17;72.07;;;8.65;;
52106;SDS011;38105;52.968;5.974;2022-12-24T07:18:43;78.50;;;8.25;;
52106;SDS011;38105;52.968;5.974;2022-12-24T07:21:09;66.90;;;7.22;;
52106;SDS011;38105;52.968;5.974;2022-12-24T07:23:35;69.85;;;7.88;;
52106;SDS011;38105;52.968;5.974;2022-12-24T07:26:01;70.15;;;10.35;;
52106;SDS011;38105;52.968;5.974;2022-12-24T07:28:29;67.75;;;8.40;;
52106;SDS011;38105;52.968;5.974;2022-12-24T07:30:55;67.50;;;7.70;;
52106;SDS011;38105;52.968;5.974;2022-12-24T07:33:21;75.25;;;8.38;;
52106;SDS011;38105;52.968;5.974;2022-12-24T07:36:00;67.10;;;8.15;;
52106;SDS011;38105;52.968;5.974;2022-12-24T07:38:27;65.10;;;7.28;;
52106;SDS011;38105;52.968;5.974;2022-12-24T07:40:54;72.47;;;7.45;;
52106;SDS011;38105;52.968;5.974;2022-12-24T07:43:21;74.35;;;8.85;;
52106;SDS011;38105;52.968;5.974;2022-12-24T07:45:46;75.25;;;8.07;;
52106;SDS011;38105;52.968;5.974;2022-12-24T07:48:12;73.15;;;8.30;;
52106;SDS011;38105;52.968;5.974;2022-12-24T07:50:38;83.40;;;8.63;;
52106;SDS011;38105;52.968;5.974;2022-12-24T07:53:03;71.88;;;8.45;;
52106;SDS011;38105;52.968;5.974;2022-12-24T07:55:29;76.53;;;8.32;;
52106;SDS011;38105;52.968;5.974;2022-12-24T07:57:54;75.47;;;8.75;;
52106;SDS011;38105;52.968;5.974;2022-12-24T08:00:20;65.13;;;8.50;;
52106;SDS011;38105;52.968;5.974;2022-12-24T08:02:46;79.63;;;8.38;;
52106;SDS011;38105;52.968;5.974;2022-12-24T08:05:11;56.95;;;7.40;;
52106;SDS011;38105;52.968;5.974;2022-12-24T08:07:37;72.93;;;7.28;;
52106;SDS011;38105;52.968;5.974;2022-12-24T08:10:06;67.82;;;8.50;;
52106;SDS011;38105;52.968;5.974;2022-12-24T08:12:32;71.35;;;9.23;;
52106;SDS011;38105;52.968;5.974;2022-12-24T08:14:58;73.40;;;8.50;;
52106;SDS011;38105;52.968;5.974;2022-12-24T08:17:24;61.75;;;7.40;;
52106;SDS011;38105;52.968;5.974;2022-12-24T08:19:49;65.57;;;8.13;;
52106;SDS011;38105;52.968;5.974;2022-12-24T08:22:15;78.60;;;8.73;;
52106;SDS011;38105;52.968;5.974;2022-12-24T08:24:40;72.00;;;9.25;;
52106;SDS011;38105;52.968;5.974;2022-12-24T08:27:06;59.80;;;8.30;;
52106;SDS011;38105;52.968;5.974;2022-12-24T08:29:32;72.30;;;8.63;;
52106;SDS011;38105;52.968;5.974;2022-12-24T08:31:57;59.97;;;7.95;;
52106;SDS011;38105;52.968;5.974;2022-12-24T08:34:23;62.55;;;7.65;;
52106;SDS011;38105;52.968;5.974;2022-12-24T08:36:49;71.85;;;8.35;;
52106;SDS011;38105;52.968;5.974;2022-12-24T08:39:14;83.05;;;9.68;;
52106;SDS011;38105;52.968;5.974;2022-12-24T08:41:40;75.18;;;8.90;;
52106;SDS011;38105;52.968;5.974;2022-12-24T08:44:05;76.10;;;7.88;;
52106;SDS011;38105;52.968;5.974;2022-12-24T08:46:31;62.88;;;7.80;;
52106;SDS011;38105;52.968;5.974;2022-12-24T08:48:57;57.00;;;8.07;;
52106;SDS011;38105;52.968;5.974;2022-12-24T08:51:22;63.00;;;9.15;;
52106;SDS011;38105;52.968;5.974;2022-12-24T08:53:48;71.43;;;8.98;;
52106;SDS011;38105;52.968;5.974;2022-12-24T08:56:13;68.80;;;7.47;;
52106;SDS011;38105;52.968;5.974;2022-12-24T08:58:40;62.00;;;7.85;;
52106;SDS011;38105;52.968;5.974;2022-12-24T09:01:10;58.67;;;8.43;;
52106;SDS011;38105;52.968;5.974;2022-12-24T09:03:37;59.83;;;8.32;;
52106;SDS011;38105;52.968;5.974;2022-12-24T09:06:04;50.95;;;7.80;;
52106;SDS011;38105;52.968;5.974;2022-12-24T09:08:33;61.50;;;7.78;;
52106;SDS011;38105;52.968;5.974;2022-12-24T09:11:05;56.03;;;7.18;;
52106;SDS011;38105;52.968;5.974;2022-12-24T09:13:33;55.40;;;7.53;;
52106;SDS011;38105;52.968;5.974;2022-12-24T09:15:59;74.50;;;8.48;;
52106;SDS011;38105;52.968;5.974;2022-12-24T09:18:25;57.47;;;7.32;;
52106;SDS011;38105;52.968;5.974;2022-12-24T09:20:50;54.53;;;7.55;;
52106;SDS011;38105;52.968;5.974;2022-12-24T09:23:16;56.55;;;7.40;;
52106;SDS011;38105;52.968;5.974;2022-12-24T09:25:42;36.25;;;5.20;;
52106;SDS011;38105;52.968;5.974;2022-12-24T09:28:08;36.83;;;5.38;;
52106;SDS011;38105;52.968;5.974;2022-12-24T09:30:35;45.13;;;6.30;;
52106;SDS011;38105;52.968;5.974;2022-12-24T09:33:01;45.38;;;6.05;;
52106;SDS011;38105;52.968;5.974;2022-12-24T09:35:27;44.67;;;5.55;;
52106;SDS011;38105;52.968;5.974;2022-12-24T09:37:58;51.08;;;6.65;;
52106;SDS011;38105;52.968;5.974;2022-12-24T09:40:45;53.15;;;7.18;;
52106;SDS011;38105;52.968;5.974;2022-12-24T09:43:18;55.67;;;7.32;;
52106;SDS011;38105;52.968;5.974;2022-12-24T09:48:22;48.42;;;7.05;;
52106;SDS011;38105;52.968;5.974;2022-12-24T09:50:58;54.55;;;6.97;;
52106;SDS011;38105;52.968;5.974;2022-12-24T09:53:31;54.00;;;8.18;;
52106;SDS011;38105;52.968;5.974;2022-12-24T09:56:18;54.60;;;7.38;;
52106;SDS011;38105;52.968;5.974;2022-12-24T09:58:47;59.50;;;7.43;;
52106;SDS011;38105;52.968;5.974;2022-12-24T10:01:17;67.38;;;8.88;;
52106;SDS011;38105;52.968;5.974;2022-12-24T10:03:43;63.13;;;8.20;;
52106;SDS011;38105;52.968;5.974;2022-12-24T10:25:01;48.95;;;6.95;;
52106;SDS011;38105;52.968;5.974;2022-12-24T10:27:37;58.45;;;7.70;;
52106;SDS011;38105;52.968;5.974;2022-12-24T10:30:16;57.38;;;7.63;;
52106;SDS011;38105;52.968;5.974;2022-12-24T10:32:46;51.53;;;7.75;;
52106;SDS011;38105;52.968;5.974;2022-12-24T10:37:39;46.70;;;7.32;;
52106;SDS011;38105;52.968;5.974;2022-12-24T10:40:10;40.13;;;6.25;;
52106;SDS011;38105;52.968;5.974;2022-12-24T10:42:42;45.97;;;8.10;;
52106;SDS011;38105;52.968;5.974;2022-12-24T10:45:09;51.72;;;7.28;;
52106;SDS011;38105;52.968;5.974;2022-12-24T10:47:39;46.30;;;6.63;;
52106;SDS011;38105;52.968;5.974;2022-12-24T10:50:18;63.72;;;7.25;;
52106;SDS011;38105;52.968;5.974;2022-12-24T10:52:52;45.05;;;7.50;;
52106;SDS011;38105;52.968;5.974;2022-12-24T10:55:23;43.42;;;6.05;;
52106;SDS011;38105;52.968;5.974;2022-12-24T10:58:00;48.30;;;6.88;;
52106;SDS011;38105;52.968;5.974;2022-12-24T11:00:28;43.03;;;6.22;;
52106;SDS011;38105;52.968;5.974;2022-12-24T11:05:36;47.83;;;6.05;;
52106;SDS011;38105;52.968;5.974;2022-12-24T11:08:13;39.95;;;6.30;;
52106;SDS011;38105;52.968;5.974;2022-12-24T11:10:43;52.88;;;6.03;;
52106;SDS011;38105;52.968;5.974;2022-12-24T11:14:00;40.60;;;5.45;;
52106;SDS011;38105;52.968;5.974;2022-12-24T11:16:22;45.15;;;5.88;;
52106;SDS011;38105;52.968;5.974;2022-12-24T11:19:01;41.92;;;6.10;;
52106;SDS011;38105;52.968;5.974;2022-12-24T11:21:38;47.15;;;6.40;;
52106;SDS011;38105;52.968;5.974;2022-12-24T11:24:07;41.38;;;5.25;;
52106;SDS011;38105;52.968;5.974;2022-12-24T11:26:36;40.22;;;6.22;;
52106;SDS011;38105;52.968;5.974;2022-12-24T11:29:10;40.85;;;6.10;;
52106;SDS011;38105;52.968;5.974;2022-12-24T11:31:40;38.70;;;5.20;;
52106;SDS011;38105;52.968;5.974;2022-12-24T11:39:44;46.25;;;6.22;;
52106;SDS011;38105;52.968;5.974;2022-12-24T11:44:56;36.75;;;5.68;;
52106;SDS011;38105;52.968;5.974;2022-12-24T11:47:37;46.40;;;5.75;;
52106;SDS011;38105;52.968;5.974;2022-12-24T11:53:33;36.22;;;5.03;;
52106;SDS011;38105;52.968;5.974;2022-12-24T11:55:55;43.55;;;6.95;;
52106;SDS011;38105;52.968;5.974;2022-12-24T12:03:44;41.25;;;4.90;;
52106;SDS011;38105;52.968;5.974;2022-12-24T12:06:31;41.65;;;5.57;;
52106;SDS011;38105;52.968;5.974;2022-12-24T12:09:04;42.45;;;6.50;;
52106;SDS011;38105;52.968;5.974;2022-12-24T12:11:35;39.70;;;5.53;;
52106;SDS011;38105;52.968;5.974;2022-12-24T12:14:04;37.53;;;5.35;;
52106;SDS011;38105;52.968;5.974;2022-12-24T12:16:42;41.00;;;5.53;;
52106;SDS011;38105;52.968;5.974;2022-12-24T12:19:27;42.03;;;5.30;;
52106;SDS011;38105;52.968;5.974;2022-12-24T12:22:02;34.85;;;5.38;;
52106;SDS011;38105;52.968;5.974;2022-12-24T12:24:33;36.65;;;5.60;;
52106;SDS011;38105;52.968;5.974;2022-12-24T12:29:46;38.65;;;5.72;;
52106;SDS011;38105;52.968;5.974;2022-12-24T12:33:00;36.03;;;5.03;;
52106;SDS011;38105;52.968;5.974;2022-12-24T12:35:23;33.05;;;4.60;;
52106;SDS011;38105;52.968;5.974;2022-12-24T12:38:03;44.20;;;6.25;;
52106;SDS011;38105;52.968;5.974;2022-12-24T12:40:54;36.95;;;4.70;;
52106;SDS011;38105;52.968;5.974;2022-12-24T12:54:25;36.90;;;5.50;;
52106;SDS011;38105;52.968;5.974;2022-12-24T12:57:10;31.40;;;4.60;;
52106;SDS011;38105;52.968;5.974;2022-12-24T13:10:58;39.83;;;5.20;;
52106;SDS011;38105;52.968;5.974;2022-12-24T13:19:10;42.08;;;5.93;;
52106;SDS011;38105;52.968;5.974;2022-12-24T13:21:41;37.15;;;5.70;;
52106;SDS011;38105;52.968;5.974;2022-12-24T13:24:17;35.97;;;5.00;;
52106;SDS011;38105;52.968;5.974;2022-12-24T13:34:50;34.85;;;6.05;;
52106;SDS011;38105;52.968;5.974;2022-12-24T13:37:37;37.70;;;5.70;;
52106;SDS011;38105;52.968;5.974;2022-12-24T13:53:00;32.60;;;4.68;;
52106;SDS011;38105;52.968;5.974;2022-12-24T13:55:29;31.70;;;5.13;;
52106;SDS011;38105;52.968;5.974;2022-12-24T13:57:56;34.67;;;5.13;;
52106;SDS011;38105;52.968;5.974;2022-12-24T14:00:39;31.60;;;4.63;;
52106;SDS011;38105;52.968;5.974;2022-12-24T14:03:20;28.75;;;4.10;;
52106;SDS011;38105;52.968;5.974;2022-12-24T14:06:01;25.73;;;3.88;;
52106;SDS011;38105;52.968;5.974;2022-12-24T14:08:45;28.15;;;4.32;;
52106;SDS011;38105;52.968;5.974;2022-12-24T14:11:20;29.23;;;4.22;;
52106;SDS011;38105;52.968;5.974;2022-12-24T14:16:27;23.52;;;3.88;;
52106;SDS011;38105;52.968;5.974;2022-12-24T14:21:26;29.15;;;4.50;;
52106;SDS011;38105;52.968;5.974;2022-12-24T14:26:53;26.73;;;4.15;;
52106;SDS011;38105;52.968;5.974;2022-12-24T14:29:26;25.50;;;4.60;;
52106;SDS011;38105;52.968;5.974;2022-12-24T14:31:56;31.42;;;4.47;;
52106;SDS011;38105;52.968;5.974;2022-12-24T14:34:23;28.88;;;4.68;;
52106;SDS011;38105;52.968;5.974;2022-12-24T14:36:53;26.75;;;3.90;;
52106;SDS011;38105;52.968;5.974;2022-12-24T14:42:33;27.42;;;4.95;;
52106;SDS011;38105;52.968;5.974;2022-12-24T14:56:21;30.67;;;5.45;;
52106;SDS011;38105;52.968;5.974;2022-12-24T14:58:47;28.75;;;5.18;;
52106;SDS011;38105;52.968;5.974;2022-12-24T15:01:31;28.08;;;5.25;;
52106;SDS011;38105;52.968;5.974;2022-12-24T15:06:42;23.95;;;4.25;;
52106;SDS011;38105;52.968;5.974;2022-12-24T15:09:26;24.48;;;3.95;;
52106;SDS011;38105;52.968;5.974;2022-12-24T15:11:55;24.23;;;4.45;;
52106;SDS011;38105;52.968;5.974;2022-12-24T15:14:25;23.92;;;4.07;;
52106;SDS011;38105;52.968;5.974;2022-12-24T15:16:54;23.17;;;3.92;;
52106;SDS011;38105;52.968;5.974;2022-12-24T15:19:27;21.52;;;4.05;;
52106;SDS011;38105;52.968;5.974;2022-12-24T15:22:21;32.47;;;4.95;;
52106;SDS011;38105;52.968;5.974;2022-12-24T15:24:50;38.63;;;5.35;;
52106;SDS011;38105;52.968;5.974;2022-12-24T15:27:20;29.05;;;4.38;;
52106;SDS011;38105;52.968;5.974;2022-12-24T15:29:49;35.10;;;4.95;;
52106;SDS011;38105;52.968;5.974;2022-12-24T15:32:20;27.50;;;4.70;;
52106;SDS011;38105;52.968;5.974;2022-12-24T15:34:47;31.75;;;5.28;;
52106;SDS011;38105;52.968;5.974;2022-12-24T15:37:21;30.45;;;4.80;;
52106;SDS011;38105;52.968;5.974;2022-12-24T15:39:53;33.58;;;4.35;;
52106;SDS011;38105;52.968;5.974;2022-12-24T15:42:21;33.90;;;6.05;;
52106;SDS011;38105;52.968;5.974;2022-12-24T15:44:56;30.23;;;4.53;;
52106;SDS011;38105;52.968;5.974;2022-12-24T15:47:29;30.77;;;4.68;;
52106;SDS011;38105;52.968;5.974;2022-12-24T15:50:03;38.15;;;5.68;;
52106;SDS011;38105;52.968;5.974;2022-12-24T15:52:29;37.88;;;5.22;;
52106;SDS011;38105;52.968;5.974;2022-12-24T15:54:55;41.03;;;4.63;;
52106;SDS011;38105;52.968;5.974;2022-12-24T15:59:52;34.10;;;4.45;;
52106;SDS011;38105;52.968;5.974;2022-12-24T16:07:59;33.75;;;4.90;;
52106;SDS011;38105;52.968;5.974;2022-12-24T16:10:38;39.45;;;5.55;;
52106;SDS011;38105;52.968;5.974;2022-12-24T16:13:14;36.70;;;5.20;;
52106;SDS011;38105;52.968;5.974;2022-12-24T16:18:19;39.63;;;5.88;;
52106;SDS011;38105;52.968;5.974;2022-12-24T16:20:51;44.13;;;6.65;;
52106;SDS011;38105;52.968;5.974;2022-12-24T16:23:19;38.35;;;5.85;;
52106;SDS011;38105;52.968;5.974;2022-12-24T16:25:46;36.88;;;5.28;;
52106;SDS011;38105;52.968;5.974;2022-12-24T16:28:12;38.78;;;5.97;;
52106;SDS011;38105;52.968;5.974;2022-12-24T16:30:39;48.33;;;8.02;;
52106;SDS011;38105;52.968;5.974;2022-12-24T16:33:04;43.85;;;6.07;;
52106;SDS011;38105;52.968;5.974;2022-12-24T16:35:36;38.65;;;5.85;;
52106;SDS011;38105;52.968;5.974;2022-12-24T16:38:02;44.40;;;6.45;;
52106;SDS011;38105;52.968;5.974;2022-12-24T16:40:28;42.35;;;9.95;;
52106;SDS011;38105;52.968;5.974;2022-12-24T16:42:54;39.42;;;7.32;;
52106;SDS011;38105;52.968;5.974;2022-12-24T16:45:39;44.97;;;5.97;;
52106;SDS011;38105;52.968;5.974;2022-12-24T16:48:09;36.03;;;6.05;;
52106;SDS011;38105;52.968;5.974;2022-12-24T16:50:42;44.50;;;6.05;;
52106;SDS011;38105;52.968;5.974;2022-12-24T16:53:08;52.63;;;6.78;;
52106;SDS011;38105;52.968;5.974;2022-12-24T16:55:41;40.97;;;6.55;;
52106;SDS011;38105;52.968;5.974;2022-12-24T16:58:11;46.17;;;6.95;;
52106;SDS011;38105;52.968;5.974;2022-12-24T17:00:38;50.50;;;6.90;;
52106;SDS011;38105;52.968;5.974;2022-12-24T17:03:05;42.38;;;7.13;;
52106;SDS011;38105;52.968;5.974;2022-12-24T17:05:31;52.70;;;7.60;;
52106;SDS011;38105;52.968;5.974;2022-12-24T17:08:00;44.78;;;6.82;;
52106;SDS011;38105;52.968;5.974;2022-12-24T17:10:26;34.55;;;6.35;;
52106;SDS011;38105;52.968;5.974;2022-12-24T17:12:52;39.30;;;6.38;;
52106;SDS011;38105;52.968;5.974;2022-12-24T17:15:18;52.13;;;7.60;;
52106;SDS011;38105;52.968;5.974;2022-12-24T17:17:44;44.05;;;5.75;;
52106;SDS011;38105;52.968;5.974;2022-12-24T17:20:12;48.88;;;7.70;;
52106;SDS011;38105;52.968;5.974;2022-12-24T17:22:38;49.70;;;6.22;;